Time;durP1;ratioP1;P1;durP2;ratioP2;P2;SDS_P1;SDS_P2;PMS_P1;PMS_P2;Temp;Humidity;BMP_temperature;BMP_pressure;BME280_temperature;BME280_humidity;BME280_pressure;Samples;Min_cycle;Max_cycle;Signal;HPM_P1;HPM_P2
2022/06/29 00:00:26;;;;;;;25.48;8.48;;;25.50;99.90;;;;;;6167668;23;20029;-93
2022/06/29 00:02:53;;;;;;;30.88;8.98;;;25.40;99.90;;;;;;6167495;23;20008;-92
2022/06/29 00:05:22;;;;;;;31.58;8.85;;;25.40;99.90;;;;;;6168987;23;20046;-91
2022/06/29 00:07:57;;;;;;;28.42;9.27;;;25.30;99.90;;;;;;6169589;23;20438;-92
2022/06/29 00:10:24;;;;;;;27.45;8.57;;;25.30;99.90;;;;;;6168418;23;20009;-92
2022/06/29 00:12:52;;;;;;;29.00;9.43;;;25.30;99.90;;;;;;6167483;23;20005;-92
2022/06/29 00:15:22;;;;;;;30.85;9.18;;;25.30;99.90;;;;;;6167606;23;20012;-93
2022/06/29 00:17:49;;;;;;;37.08;10.18;;;25.30;99.90;;;;;;6167656;23;20368;-92
2022/06/29 00:20:16;;;;;;;22.67;8.55;;;25.30;99.90;;;;;;6192448;23;20005;-93
2022/06/29 00:22:43;;;;;;;27.23;8.68;;;25.30;99.90;;;;;;6167204;23;20435;-92
2022/06/29 00:25:12;;;;;;;33.30;9.88;;;25.10;99.90;;;;;;6167140;23;20040;-92
2022/06/29 00:27:40;;;;;;;28.42;9.88;;;25.00;99.90;;;;;;6167260;23;20011;-93
2022/06/29 00:30:08;;;;;;;26.38;9.77;;;25.00;99.90;;;;;;6167471;23;20349;-93
2022/06/29 00:32:47;;;;;;;36.53;9.10;;;25.00;99.90;;;;;;6167616;23;20008;-92
2022/06/29 00:35:14;;;;;;;29.35;8.93;;;24.90;99.90;;;;;;6167285;23;20461;-92
2022/06/29 00:37:40;;;;;;;27.75;8.57;;;24.80;99.90;;;;;;6167208;23;20008;-94
2022/06/29 00:40:07;;;;;;;34.72;9.55;;;24.80;99.90;;;;;;6163481;23;20009;-91
2022/06/29 00:42:34;;;;;;;32.88;8.90;;;24.90;99.90;;;;;;6166759;23;20088;-91
2022/06/29 00:45:00;;;;;;;31.20;9.57;;;25.00;99.90;;;;;;6167296;23;20008;-92
2022/06/29 00:47:27;;;;;;;38.03;9.00;;;25.00;99.90;;;;;;6167231;23;20083;-92
2022/06/29 00:49:53;;;;;;;34.10;9.57;;;25.00;99.90;;;;;;6163180;23;20032;-91
2022/06/29 00:52:25;;;;;;;29.38;9.20;;;25.10;99.90;;;;;;6169259;23;20044;-92
2022/06/29 00:54:58;;;;;;;28.88;7.72;;;25.10;99.90;;;;;;6167859;23;20011;-92
2022/06/29 00:57:27;;;;;;;24.27;8.05;;;25.10;99.90;;;;;;6167049;23;20017;-93
2022/06/29 01:00:00;;;;;;;34.78;8.45;;;25.10;99.90;;;;;;6191803;23;20008;-92
2022/06/29 01:02:32;;;;;;;28.98;8.90;;;25.00;99.90;;;;;;6167008;23;20544;-93
2022/06/29 01:04:58;;;;;;;25.80;9.27;;;24.90;99.90;;;;;;6166710;23;20008;-93
2022/06/29 01:07:28;;;;;;;32.92;8.68;;;24.80;99.90;;;;;;6166521;23;20084;-93
2022/06/29 01:09:56;;;;;;;24.80;8.00;;;24.80;99.90;;;;;;6167141;23;20012;-92
2022/06/29 01:12:25;;;;;;;23.08;8.48;;;24.80;99.90;;;;;;6166825;23;20430;-92
2022/06/29 01:14:53;;;;;;;24.08;8.00;;;24.70;99.90;;;;;;6166900;23;20449;-93
2022/06/29 01:17:21;;;;;;;28.88;9.27;;;24.70;99.90;;;;;;6166964;23;20063;-91
2022/06/29 01:19:54;;;;;;;29.55;8.57;;;24.70;99.90;;;;;;6166738;23;20015;-91
2022/06/29 01:22:22;;;;;;;26.85;8.70;;;24.70;99.90;;;;;;6166930;23;20078;-93
2022/06/29 01:24:51;;;;;;;28.42;9.45;;;24.70;99.90;;;;;;6166928;23;20091;-93
2022/06/29 01:27:19;;;;;;;28.63;8.95;;;24.60;99.90;;;;;;6167258;23;20019;-93
2022/06/29 01:29:45;;;;;;;28.13;9.70;;;24.60;99.90;;;;;;6166824;23;20063;-93
2022/06/29 01:32:13;;;;;;;28.33;8.68;;;24.60;99.90;;;;;;6166721;23;20005;-92
2022/06/29 01:34:43;;;;;;;25.75;8.98;;;24.50;99.90;;;;;;6166727;23;20140;-93
2022/06/29 01:37:10;;;;;;;25.00;8.95;;;24.50;99.90;;;;;;6166777;23;20482;-93
2022/06/29 01:39:38;;;;;;;36.42;9.15;;;24.40;99.90;;;;;;6168781;23;20084;-91
2022/06/29 01:42:06;;;;;;;28.73;8.63;;;24.40;99.90;;;;;;6168468;23;20012;-92
2022/06/29 01:44:33;;;;;;;29.42;9.27;;;24.40;99.90;;;;;;6167512;23;20008;-93
2022/06/29 01:47:01;;;;;;;28.17;9.32;;;24.20;99.90;;;;;;6166725;23;20009;-92
2022/06/29 01:49:28;;;;;;;30.77;9.25;;;24.10;99.90;;;;;;6166787;23;20015;-93
2022/06/29 01:51:55;;;;;;;25.45;9.00;;;23.70;99.90;;;;;;6191625;23;20009;-93
2022/06/29 01:54:22;;;;;;;30.33;8.82;;;23.70;99.90;;;;;;6166890;23;20007;-92
2022/06/29 01:56:49;;;;;;;31.05;9.18;;;23.50;99.90;;;;;;6168886;23;20017;-92
2022/06/29 01:59:15;;;;;;;26.85;8.20;;;23.50;99.90;;;;;;6165962;23;20037;-92
2022/06/29 02:01:42;;;;;;;25.95;9.23;;;23.60;99.90;;;;;;6167951;23;20012;-92
2022/06/29 02:04:08;;;;;;;30.27;9.15;;;23.70;99.90;;;;;;6168414;23;20035;-93
2022/06/29 02:06:35;;;;;;;30.38;9.30;;;23.80;99.90;;;;;;6168348;23;20012;-93
2022/06/29 02:09:01;;;;;;;24.67;8.65;;;23.90;99.90;;;;;;6167904;23;20005;-92
2022/06/29 02:11:28;;;;;;;30.10;9.80;;;23.80;99.90;;;;;;6167776;23;20008;-92
2022/06/29 02:13:54;;;;;;;32.45;9.25;;;23.60;99.90;;;;;;6167426;23;20009;-93
2022/06/29 02:16:21;;;;;;;40.55;8.98;;;23.60;99.90;;;;;;6167518;23;20082;-92
2022/06/29 02:18:47;;;;;;;29.65;9.75;;;23.70;99.90;;;;;;6167817;23;20008;-93
2022/06/29 02:21:14;;;;;;;30.00;11.00;;;23.80;99.90;;;;;;6186969;22;20016;-93
2022/06/29 02:23:41;;;;;;;45.05;11.23;;;23.80;99.90;;;;;;6187806;23;20039;-93
2022/06/29 02:26:07;;;;;;;37.83;11.65;;;23.90;99.90;;;;;;6213092;23;20019;-93
2022/06/29 02:28:34;;;;;;;39.33;11.85;;;23.90;99.90;;;;;;6187038;23;19989;-93
2022/06/29 02:36:31;;;;;;;40.65;12.32;;;24.30;99.90;;;;;;6216038;23;20042;-92
2022/06/29 02:38:57;;;;;;;34.55;11.48;;;24.40;99.90;;;;;;6185693;23;20024;-93
2022/06/29 02:41:23;;;;;;;35.38;11.23;;;24.40;99.90;;;;;;6191218;23;20012;-93
2022/06/29 02:43:50;;;;;;;27.10;11.10;;;24.50;99.90;;;;;;6178569;23;20028;-93
2022/06/29 02:46:17;;;;;;;34.63;11.48;;;24.60;99.90;;;;;;6166048;23;20011;-93
2022/06/29 02:48:43;;;;;;;28.35;10.05;;;24.70;99.90;;;;;;6166345;23;20032;-94
2022/06/29 02:51:09;;;;;;;37.30;10.23;;;24.80;99.90;;;;;;6165994;23;20008;-92
2022/06/29 02:53:36;;;;;;;33.65;9.98;;;24.80;99.90;;;;;;6165834;23;20012;-93
2022/06/29 02:56:03;;;;;;;35.78;10.32;;;24.70;99.90;;;;;;6166796;23;20087;-93
2022/06/29 02:58:30;;;;;;;30.02;11.32;;;24.70;99.90;;;;;;6179683;23;20040;-93
2022/06/29 03:00:56;;;;;;;42.10;11.75;;;24.70;99.90;;;;;;6191071;23;20015;-93
2022/06/29 03:03:23;;;;;;;32.83;11.45;;;24.80;99.90;;;;;;6215794;23;20385;-94
2022/06/29 03:05:49;;;;;;;37.15;10.10;;;24.90;99.90;;;;;;6190978;23;20012;-93
2022/06/29 03:08:16;;;;;;;29.20;10.32;;;24.90;99.90;;;;;;6193709;23;20035;-92
2022/06/29 03:10:42;;;;;;;37.20;11.88;;;24.90;99.90;;;;;;6217144;23;20005;-92
2022/06/29 03:13:09;;;;;;;38.65;10.93;;;25.00;99.90;;;;;;6191561;23;20035;-94
2022/06/29 03:15:35;;;;;;;32.03;10.82;;;24.90;99.90;;;;;;6191092;23;20012;-92
2022/06/29 03:18:02;;;;;;;31.83;10.23;;;24.90;99.90;;;;;;6215700;23;20008;-93
